sensor_id;sensor_type;location;lat;lon;timestamp;pressure;altitude;pressure_sealevel;temperature;humidity
78745;BME280;68064;53.100;8.824;2023-12-20T00:00:43;101231.88;;;5.66;100.00
78745;BME280;68064;53.100;8.824;2023-12-20T03:21:02;101103.34;;;4.94;100.00
78745;BME280;68064;53.100;8.824;2023-12-20T03:22:04;101105.97;;;4.95;100.00
78745;BME280;68064;53.100;8.824;2023-12-20T03:23:05;101096.25;;;5.01;100.00
78745;BME280;68064;53.100;8.824;2023-12-20T03:24:06;101106.53;;;5.03;100.00
78745;BME280;68064;53.100;8.824;2023-12-20T03:25:07;101100.34;;;4.99;100.00
78745;BME280;68064;53.100;8.824;2023-12-20T03:26:09;101098.69;;;5.00;100.00
78745;BME280;68064;53.100;8.824;2023-12-20T03:27:10;101107.28;;;5.02;100.00
78745;BME280;68064;53.100;8.824;2023-12-20T03:28:14;101104.75;;;5.02;100.00
78745;BME280;68064;53.100;8.824;2023-12-20T03:29:15;101096.16;;;5.00;100.00
78745;BME280;68064;53.100;8.824;2023-12-20T03:30:16;101102.13;;;5.00;100.00
78745;BME280;68064;53.100;8.824;2023-12-20T03:31:18;101093.50;;;4.98;100.00
78745;BME280;68064;53.100;8.824;2023-12-20T03:32:19;101096.94;;;4.99;100.00
78745;BME280;68064;53.100;8.824;2023-12-20T03:33:20;101098.03;;;5.02;100.00
78745;BME280;68064;53.100;8.824;2023-12-20T03:34:21;101105.53;;;5.01;100.00
78745;BME280;68064;53.100;8.824;2023-12-20T03:35:22;101102.34;;;5.03;100.00
78745;BME280;68064;53.100;8.824;2023-12-20T03:36:25;101094.81;;;5.05;100.00
78745;BME280;68064;53.100;8.824;2023-12-20T03:37:26;101098.34;;;5.07;100.00
78745;BME280;68064;53.100;8.824;2023-12-20T03:38:27;101094.94;;;5.06;100.00
78745;BME280;68064;53.100;8.824;2023-12-20T03:39:28;101088.09;;;5.05;100.00
78745;BME280;68064;53.100;8.824;2023-12-20T03:40:29;101087.09;;;5.03;100.00
78745;BME280;68064;53.100;8.824;2023-12-20T03:41:30;101085.53;;;5.05;100.00
78745;BME280;68064;53.100;8.824;2023-12-20T03:42:31;101092.38;;;5.06;100.00
78745;BME280;68064;53.100;8.824;2023-12-20T03:43:32;101087.41;;;5.08;100.00
78745;BME280;68064;53.100;8.824;2023-12-20T03:44:34;101091.63;;;5.07;100.00
78745;BME280;68064;53.100;8.824;2023-12-20T03:45:34;101084.03;;;5.07;100.00
78745;BME280;68064;53.100;8.824;2023-12-20T03:46:35;101085.47;;;5.04;100.00
78745;BME280;68064;53.100;8.824;2023-12-20T03:47:37;101081.34;;;5.06;100.00
78745;BME280;68064;53.100;8.824;2023-12-20T03:48:38;101072.88;;;5.05;100.00
78745;BME280;68064;53.100;8.824;2023-12-20T03:49:39;101078.06;;;5.07;100.00
78745;BME280;68064;53.100;8.824;2023-12-20T03:50:40;101069.66;;;5.08;100.00
78745;BME280;68064;53.100;8.824;2023-12-20T03:51:43;101073.88;;;5.07;100.00
78745;BME280;68064;53.100;8.824;2023-12-20T03:52:44;101080.69;;;5.08;100.00
78745;BME280;68064;53.100;8.824;2023-12-20T03:53:45;101084.09;;;5.09;100.00
78745;BME280;68064;53.100;8.824;2023-12-20T03:54:47;101072.97;;;5.07;100.00
78745;BME280;68064;53.100;8.824;2023-12-20T03:55:48;101077.38;;;5.09;100.00
78745;BME280;68064;53.100;8.824;2023-12-20T03:56:49;101080.81;;;5.10;100.00
78745;BME280;68064;53.100;8.824;2023-12-20T03:57:50;101078.34;;;5.11;100.00
78745;BME280;68064;53.100;8.824;2023-12-20T03:58:51;101066.47;;;5.10;100.00
78745;BME280;68064;53.100;8.824;2023-12-20T03:59:52;101063.03;;;5.10;100.00
78745;BME280;68064;53.100;8.824;2023-12-20T04:00:53;101066.34;;;5.09;100.00
78745;BME280;68064;53.100;8.824;2023-12-20T04:01:54;101062.25;;;5.11;100.00
78745;BME280;68064;53.100;8.824;2023-12-20T04:02:55;101052.09;;;5.11;100.00
78745;BME280;68064;53.100;8.824;2023-12-20T04:03:57;101061.38;;;5.10;100.00
78745;BME280;68064;53.100;8.824;2023-12-20T04:04:58;101062.25;;;5.11;100.00
78745;BME280;68064;53.100;8.824;2023-12-20T04:05:59;101061.59;;;5.13;100.00
78745;BME280;68064;53.100;8.824;2023-12-20T04:07:01;101055.72;;;5.14;100.00
78745;BME280;68064;53.100;8.824;2023-12-20T04:08:03;101061.69;;;5.15;100.00
78745;BME280;68064;53.100;8.824;2023-12-20T04:09:04;101060.16;;;5.17;100.00
78745;BME280;68064;53.100;8.824;2023-12-20T04:10:06;101055.63;;;5.13;100.00
78745;BME280;68064;53.100;8.824;2023-12-20T04:11:07;101053.97;;;5.13;100.00
78745;BME280;68064;53.100;8.824;2023-12-20T04:12:09;101061.59;;;5.13;100.00
78745;BME280;68064;53.100;8.824;2023-12-20T04:13:10;101055.94;;;5.17;100.00
78745;BME280;68064;53.100;8.824;2023-12-20T04:14:11;101051.66;;;5.16;100.00
78745;BME280;68064;53.100;8.824;2023-12-20T04:15:12;101048.22;;;5.16;100.00
78745;BME280;68064;53.100;8.824;2023-12-20T04:16:13;101051.53;;;5.15;100.00
78745;BME280;68064;53.100;8.824;2023-12-20T04:17:15;101049.88;;;5.15;100.00
78745;BME280;68064;53.100;8.824;2023-12-20T04:18:16;101050.75;;;5.16;100.00
78745;BME280;68064;53.100;8.824;2023-12-20T04:19:17;101050.75;;;5.16;100.00
78745;BME280;68064;53.100;8.824;2023-12-20T04:20:18;101054.06;;;5.15;100.00
78745;BME280;68064;53.100;8.824;2023-12-20T04:21:20;101046.56;;;5.16;100.00
78745;BME280;68064;53.100;8.824;2023-12-20T04:22:22;101047.34;;;5.15;100.00
78745;BME280;68064;53.100;8.824;2023-12-20T04:23:23;101043.16;;;5.16;100.00
78745;BME280;68064;53.100;8.824;2023-12-20T04:24:24;101050.00;;;5.17;100.00
78745;BME280;68064;53.100;8.824;2023-12-20T04:25:25;101047.47;;;5.17;100.00
78745;BME280;68064;53.100;8.824;2023-12-20T04:26:27;101048.31;;;5.17;100.00
78745;BME280;68064;53.100;8.824;2023-12-20T04:27:28;101047.56;;;5.18;100.00
78745;BME280;68064;53.100;8.824;2023-12-20T04:28:29;101044.94;;;5.17;100.00
78745;BME280;68064;53.100;8.824;2023-12-20T04:29:30;101040.69;;;5.17;100.00
78745;BME280;68064;53.100;8.824;2023-12-20T04:30:31;101046.78;;;5.19;100.00
78745;BME280;68064;53.100;8.824;2023-12-20T04:31:32;101034.19;;;5.21;100.00
78745;BME280;68064;53.100;8.824;2023-12-20T04:32:33;101045.91;;;5.19;100.00
78745;BME280;68064;53.100;8.824;2023-12-20T04:33:35;101040.06;;;5.20;100.00
78745;BME280;68064;53.100;8.824;2023-12-20T04:34:36;101042.47;;;5.18;100.00
78745;BME280;68064;53.100;8.824;2023-12-20T04:35:37;101032.44;;;5.20;100.00
78745;BME280;68064;53.100;8.824;2023-12-20T04:36:38;101033.28;;;5.20;100.00
78745;BME280;68064;53.100;8.824;2023-12-20T04:37:41;101024.72;;;5.18;100.00
78745;BME280;68064;53.100;8.824;2023-12-20T04:38:42;101030.88;;;5.22;100.00
78745;BME280;68064;53.100;8.824;2023-12-20T04:39:43;101039.25;;;5.21;100.00
78745;BME280;68064;53.100;8.824;2023-12-20T04:40:44;101034.09;;;5.19;100.00
78745;BME280;68064;53.100;8.824;2023-12-20T04:41:45;101048.50;;;5.20;100.00
78745;BME280;68064;53.100;8.824;2023-12-20T04:42:46;101026.56;;;5.21;100.00
78745;BME280;68064;53.100;8.824;2023-12-20T04:43:48;101041.78;;;5.21;100.00
78745;BME280;68064;53.100;8.824;2023-12-20T04:44:49;101035.94;;;5.22;100.00
78745;BME280;68064;53.100;8.824;2023-12-20T04:45:50;101043.56;;;5.22;100.00
78745;BME280;68064;53.100;8.824;2023-12-20T04:46:51;101043.66;;;5.23;100.00
78745;BME280;68064;53.100;8.824;2023-12-20T04:47:52;101036.84;;;5.22;100.00
78745;BME280;68064;53.100;8.824;2023-12-20T04:48:53;101046.97;;;5.22;100.00
78745;BME280;68064;53.100;8.824;2023-12-20T04:49:54;101050.41;;;5.23;100.00
78745;BME280;68064;53.100;8.824;2023-12-20T04:50:55;101046.88;;;5.21;100.00
78745;BME280;68064;53.100;8.824;2023-12-20T04:51:56;101037.59;;;5.21;100.00
78745;BME280;68064;53.100;8.824;2023-12-20T04:52:59;101039.38;;;5.22;100.00
78745;BME280;68064;53.100;8.824;2023-12-20T04:54:00;101036.03;;;5.23;100.00
78745;BME280;68064;53.100;8.824;2023-12-20T04:55:02;101037.72;;;5.23;100.00
78745;BME280;68064;53.100;8.824;2023-12-20T04:56:03;101027.78;;;5.26;100.00
78745;BME280;68064;53.100;8.824;2023-12-20T04:57:04;101030.19;;;5.24;100.00
78745;BME280;68064;53.100;8.824;2023-12-20T04:58:05;101031.97;;;5.25;100.00
78745;BME280;68064;53.100;8.824;2023-12-20T04:59:06;101032.84;;;5.26;100.00
78745;BME280;68064;53.100;8.824;2023-12-20T05:00:08;101025.88;;;5.23;100.00
78745;BME280;68064;53.100;8.824;2023-12-20T05:01:09;101031.06;;;5.25;100.00
78745;BME280;68064;53.100;8.824;2023-12-20T05:02:10;101025.22;;;5.26;100.00
78745;BME280;68064;53.100;8.824;2023-12-20T05:03:11;101019.34;;;5.27;100.00
78745;BME280;68064;53.100;8.824;2023-12-20T05:04:13;101025.13;;;5.24;100.00
78745;BME280;68064;53.100;8.824;2023-12-20T05:05:14;101016.94;;;5.28;100.00
78745;BME280;68064;53.100;8.824;2023-12-20T05:06:15;101013.50;;;5.28;100.00
78745;BME280;68064;53.100;8.824;2023-12-20T05:07:16;101012.63;;;5.27;100.00
78745;BME280;68064;53.100;8.824;2023-12-20T05:08:19;101013.41;;;5.26;100.00
78745;BME280;68064;53.100;8.824;2023-12-20T05:09:20;101008.44;;;5.28;100.00
78745;BME280;68064;53.100;8.824;2023-12-20T05:10:21;101002.47;;;5.27;100.00
78745;BME280;68064;53.100;8.824;2023-12-20T05:11:22;100999.06;;;5.27;100.00
78745;BME280;68064;53.100;8.824;2023-12-20T05:12:24;101007.66;;;5.29;100.00
78745;BME280;68064;53.100;8.824;2023-12-20T05:13:25;100999.16;;;5.28;100.00
78745;BME280;68064;53.100;8.824;2023-12-20T05:14:26;101002.47;;;5.27;100.00
78745;BME280;68064;53.100;8.824;2023-12-20T05:15:27;100994.09;;;5.28;100.00
78745;BME280;68064;53.100;8.824;2023-12-20T05:16:28;101011.94;;;5.30;100.00
78745;BME280;68064;53.100;8.824;2023-12-20T05:17:29;101008.63;;;5.31;100.00
78745;BME280;68064;53.100;8.824;2023-12-20T05:18:30;101007.06;;;5.33;100.00
78745;BME280;68064;53.100;8.824;2023-12-20T05:19:32;101011.09;;;5.29;100.00
78745;BME280;68064;53.100;8.824;2023-12-20T05:20:33;101017.13;;;5.31;100.00
78745;BME280;68064;53.100;8.824;2023-12-20T05:21:34;101024.84;;;5.33;100.00
78745;BME280;68064;53.100;8.824;2023-12-20T05:22:35;101009.72;;;5.34;100.00
78745;BME280;68064;53.100;8.824;2023-12-20T05:23:38;101008.84;;;5.34;100.00
78745;BME280;68064;53.100;8.824;2023-12-20T05:24:39;101017.22;;;5.33;100.00
78745;BME280;68064;53.100;8.824;2023-12-20T05:25:40;101017.22;;;5.33;100.00
78745;BME280;68064;53.100;8.824;2023-12-20T05:26:41;101019.75;;;5.33;100.00
78745;BME280;68064;53.100;8.824;2023-12-20T05:27:42;101011.38;;;5.34;100.00
78745;BME280;68064;53.100;8.824;2023-12-20T05:28:43;101012.06;;;5.31;100.00
78745;BME280;68064;53.100;8.824;2023-12-20T05:29:45;101013.84;;;5.32;100.00
78745;BME280;68064;53.100;8.824;2023-12-20T05:30:46;101016.44;;;5.34;100.00
78745;BME280;68064;53.100;8.824;2023-12-20T05:31:47;101010.63;;;5.35;100.00
78745;BME280;68064;53.100;8.824;2023-12-20T05:32:48;101015.56;;;5.33;100.00
78745;BME280;68064;53.100;8.824;2023-12-20T05:33:49;101008.84;;;5.34;100.00
78745;BME280;68064;53.100;8.824;2023-12-20T05:34:50;101016.56;;;5.36;100.00
78745;BME280;68064;53.100;8.824;2023-12-20T05:35:51;101003.75;;;5.34;100.00
78745;BME280;68064;53.100;8.824;2023-12-20T05:36:53;101014.03;;;5.36;100.00
78745;BME280;68064;53.100;8.824;2023-12-20T05:37:54;101009.59;;;5.33;100.00
78745;BME280;68064;53.100;8.824;2023-12-20T05:38:56;101011.38;;;5.34;100.00
78745;BME280;68064;53.100;8.824;2023-12-20T05:39:57;101012.34;;;5.36;100.00
78745;BME280;68064;53.100;8.824;2023-12-20T05:40:59;100999.78;;;5.38;100.00
78745;BME280;68064;53.100;8.824;2023-12-20T05:42:00;101005.72;;;5.38;100.00
78745;BME280;68064;53.100;8.824;2023-12-20T05:43:01;101009.81;;;5.36;100.00
78745;BME280;68064;53.100;8.824;2023-12-20T05:44:02;101015.88;;;5.38;100.00
78745;BME280;68064;53.100;8.824;2023-12-20T05:45:03;101019.41;;;5.40;100.00
78745;BME280;68064;53.100;8.824;2023-12-20T05:46:05;101019.41;;;5.40;100.00
78745;BME280;68064;53.100;8.824;2023-12-20T05:47:06;101015.00;;;5.38;100.00
78745;BME280;68064;53.100;8.824;2023-12-20T05:48:07;101019.97;;;5.36;100.00
78745;BME280;68064;53.100;8.824;2023-12-20T05:49:09;101009.03;;;5.37;100.00
78745;BME280;68064;53.100;8.824;2023-12-20T05:50:10;101017.53;;;5.38;100.00
78745;BME280;68064;53.100;8.824;2023-12-20T05:51:11;101008.28;;;5.38;100.00
78745;BME280;68064;53.100;8.824;2023-12-20T05:52:13;101015.69;;;5.35;100.00
78745;BME280;68064;53.100;8.824;2023-12-20T05:53:14;101008.16;;;5.37;100.00
78745;BME280;68064;53.100;8.824;2023-12-20T05:54:16;101013.34;;;5.38;100.00
78745;BME280;68064;53.100;8.824;2023-12-20T05:55:17;101011.69;;;5.39;100.00
78745;BME280;68064;53.100;8.824;2023-12-20T05:56:19;101002.63;;;5.42;100.00
78745;BME280;68064;53.100;8.824;2023-12-20T05:57:20;101005.81;;;5.40;100.00
78745;BME280;68064;53.100;8.824;2023-12-20T05:58:21;101004.16;;;5.40;100.00
78745;BME280;68064;53.100;8.824;2023-12-20T05:59:22;100998.31;;;5.41;100.00
78745;BME280;68064;53.100;8.824;2023-12-20T06:00:23;101001.63;;;5.40;100.00
78745;BME280;68064;53.100;8.824;2023-12-20T06:01:24;101002.63;;;5.42;100.00
78745;BME280;68064;53.100;8.824;2023-12-20T06:02:25;101004.38;;;5.43;100.00
78745;BME280;68064;53.100;8.824;2023-12-20T06:03:26;100990.03;;;5.44;100.00
78745;BME280;68064;53.100;8.824;2023-12-20T06:04:28;100995.97;;;5.44;100.00
78745;BME280;68064;53.100;8.824;2023-12-20T06:05:29;100992.66;;;5.45;100.00
78745;BME280;68064;53.100;8.824;2023-12-20T06:06:30;100997.84;;;5.47;100.00
78745;BME280;68064;53.100;8.824;2023-12-20T06:07:31;100986.78;;;5.46;100.00
78745;BME280;68064;53.100;8.824;2023-12-20T06:08:33;100988.56;;;5.47;100.00
78745;BME280;68064;53.100;8.824;2023-12-20T06:09:35;100984.44;;;5.49;100.00
78745;BME280;68064;53.100;8.824;2023-12-20T06:10:36;100978.28;;;5.46;100.00
78745;BME280;68064;53.100;8.824;2023-12-20T06:11:37;100978.22;;;5.44;100.00
78745;BME280;68064;53.100;8.824;2023-12-20T06:12:39;100973.81;;;5.42;100.00
78745;BME280;68064;53.100;8.824;2023-12-20T06:13:40;101003.59;;;5.44;100.00
78745;BME280;68064;53.100;8.824;2023-12-20T06:14:41;100980.75;;;5.44;100.00
78745;BME280;68064;53.100;8.824;2023-12-20T06:15:42;100976.56;;;5.45;100.00
78745;BME280;68064;53.100;8.824;2023-12-20T06:16:43;100984.06;;;5.43;100.00
78745;BME280;68064;53.100;8.824;2023-12-20T06:17:44;100979.09;;;5.45;100.00
78745;BME280;68064;53.100;8.824;2023-12-20T06:18:45;100993.44;;;5.44;100.00
78745;BME280;68064;53.100;8.824;2023-12-20T06:19:47;100983.28;;;5.44;100.00
78745;BME280;68064;53.100;8.824;2023-12-20T06:20:48;101009.75;;;5.48;100.00
78745;BME280;68064;53.100;8.824;2023-12-20T06:21:49;100981.63;;;5.45;100.00
78745;BME280;68064;53.100;8.824;2023-12-20T06:22:50;100997.75;;;5.45;100.00
78745;BME280;68064;53.100;8.824;2023-12-20T06:23:51;100986.59;;;5.43;100.00
78745;BME280;68064;53.100;8.824;2023-12-20T06:24:54;100986.91;;;5.48;100.00
78745;BME280;68064;53.100;8.824;2023-12-20T06:25:55;100989.44;;;5.48;100.00
78745;BME280;68064;53.100;8.824;2023-12-20T06:26:56;100984.25;;;5.46;100.00
78745;BME280;68064;53.100;8.824;2023-12-20T06:27:57;100985.13;;;5.47;100.00
78745;BME280;68064;53.100;8.824;2023-12-20T06:28:59;100980.94;;;5.47;100.00
78745;BME280;68064;53.100;8.824;2023-12-20T06:30:00;100977.72;;;5.50;100.00
78745;BME280;68064;53.100;8.824;2023-12-20T06:31:01;100976.19;;;5.52;100.00
78745;BME280;68064;53.100;8.824;2023-12-20T06:32:02;100975.09;;;5.48;100.00
78745;BME280;68064;53.100;8.824;2023-12-20T06:33:04;100979.38;;;5.49;100.00
78745;BME280;68064;53.100;8.824;2023-12-20T06:34:05;100980.94;;;5.47;100.00
78745;BME280;68064;53.100;8.824;2023-12-20T06:35:07;100980.19;;;5.48;100.00
78745;BME280;68064;53.100;8.824;2023-12-20T06:36:11;100978.91;;;5.55;100.00
78745;BME280;68064;53.100;8.824;2023-12-20T06:37:12;100973.53;;;5.50;100.00
78745;BME280;68064;53.100;8.824;2023-12-20T06:38:13;100970.41;;;5.54;100.00
78745;BME280;68064;53.100;8.824;2023-12-20T06:39:14;100963.00;;;5.57;100.00
78745;BME280;68064;53.100;8.824;2023-12-20T06:40:17;100957.91;;;5.57;100.00
78745;BME280;68064;53.100;8.824;2023-12-20T06:41:18;100959.47;;;5.55;100.00
78745;BME280;68064;53.100;8.824;2023-12-20T06:42:19;100964.53;;;5.55;100.00
78745;BME280;68064;53.100;8.824;2023-12-20T06:43:20;100963.69;;;5.55;100.00
78745;BME280;68064;53.100;8.824;2023-12-20T06:44:21;100961.34;;;5.58;100.00
78745;BME280;68064;53.100;8.824;2023-12-20T06:45:23;100948.44;;;5.55;100.00
78745;BME280;68064;53.100;8.824;2023-12-20T06:46:24;100944.03;;;5.52;100.00
78745;BME280;68064;53.100;8.824;2023-12-20T06:47:25;100934.06;;;5.55;100.00
78745;BME280;68064;53.100;8.824;2023-12-20T06:48:26;100936.84;;;5.58;100.00
78745;BME280;68064;53.100;8.824;2023-12-20T06:49:27;100946.19;;;5.59;100.00
78745;BME280;68064;53.100;8.824;2023-12-20T06:50:28;100940.91;;;5.56;100.00
78745;BME280;68064;53.100;8.824;2023-12-20T06:51:29;100941.91;;;5.58;100.00
78745;BME280;68064;53.100;8.824;2023-12-20T06:52:30;100935.16;;;5.59;100.00
78745;BME280;68064;53.100;8.824;2023-12-20T06:53:31;100939.38;;;5.58;100.00
78745;BME280;68064;53.100;8.824;2023-12-20T06:54:32;100943.75;;;5.61;100.00
78745;BME280;68064;53.100;8.824;2023-12-20T06:55:35;100944.44;;;5.58;100.00
78745;BME280;68064;53.100;8.824;2023-12-20T06:56:36;100949.53;;;5.58;100.00
78745;BME280;68064;53.100;8.824;2023-12-20T06:57:38;100948.03;;;5.62;100.00
78745;BME280;68064;53.100;8.824;2023-12-20T06:58:39;100929.28;;;5.60;99.95
78745;BME280;68064;53.100;8.824;2023-12-20T06:59:40;100939.84;;;5.66;99.86
78745;BME280;68064;53.100;8.824;2023-12-20T07:00:41;100934.69;;;5.64;100.00
78745;BME280;68064;53.100;8.824;2023-12-20T07:01:47;100944.84;;;5.64;100.00
78745;BME280;68064;53.100;8.824;2023-12-20T07:02:49;100942.09;;;5.61;100.00
78745;BME280;68064;53.100;8.824;2023-12-20T07:03:50;100950.69;;;5.63;100.00
78745;BME280;68064;53.100;8.824;2023-12-20T07:04:51;100933.69;;;5.62;100.00
78745;BME280;68064;53.100;8.824;2023-12-20T07:05:53;100933.69;;;5.62;100.00
78745;BME280;68064;53.100;8.824;2023-12-20T07:06:54;100941.50;;;5.65;99.88
78745;BME280;68064;53.100;8.824;2023-12-20T07:07:55;100943.97;;;5.64;100.00
78745;BME280;68064;53.100;8.824;2023-12-20T07:08:56;100946.50;;;5.64;100.00
78745;BME280;68064;53.100;8.824;2023-12-20T07:09:57;100949.03;;;5.64;100.00
78745;BME280;68064;53.100;8.824;2023-12-20T07:11:00;100950.00;;;5.66;100.00
78745;BME280;68064;53.100;8.824;2023-12-20T07:12:01;100949.22;;;5.67;100.00
78745;BME280;68064;53.100;8.824;2023-12-20T07:13:02;100942.56;;;5.69;100.00
78745;BME280;68064;53.100;8.824;2023-12-20T07:14:03;100944.41;;;5.71;100.00
78745;BME280;68064;53.100;8.824;2023-12-20T07:15:05;100935.06;;;5.70;100.00
78745;BME280;68064;53.100;8.824;2023-12-20T07:16:06;100929.19;;;5.71;100.00
78745;BME280;68064;53.100;8.824;2023-12-20T07:17:08;100924.91;;;5.70;99.92
78745;BME280;68064;53.100;8.824;2023-12-20T07:18:09;100931.72;;;5.71;100.00
78745;BME280;68064;53.100;8.824;2023-12-20T07:19:10;100934.25;;;5.71;100.00
78745;BME280;68064;53.100;8.824;2023-12-20T07:20:11;100931.72;;;5.71;100.00
78745;BME280;68064;53.100;8.824;2023-12-20T07:21:12;100932.53;;;5.70;100.00
78745;BME280;68064;53.100;8.824;2023-12-20T07:22:13;100934.47;;;5.74;100.00
78745;BME280;68064;53.100;8.824;2023-12-20T07:23:14;100915.63;;;5.71;100.00
78745;BME280;68064;53.100;8.824;2023-12-20T07:24:16;100928.34;;;5.71;100.00
78745;BME280;68064;53.100;8.824;2023-12-20T07:25:17;100929.38;;;5.74;100.00
78745;BME280;68064;53.100;8.824;2023-12-20T07:26:19;100923.25;;;5.71;99.96
78745;BME280;68064;53.100;8.824;2023-12-20T07:27:20;100922.56;;;5.73;99.89
78745;BME280;68064;53.100;8.824;2023-12-20T07:28:21;100927.66;;;5.73;100.00
78745;BME280;68064;53.100;8.824;2023-12-20T07:29:23;100917.47;;;5.73;99.84
78745;BME280;68064;53.100;8.824;2023-12-20T07:30:24;100921.75;;;5.74;100.00
78745;BME280;68064;53.100;8.824;2023-12-20T07:31:25;100920.09;;;5.75;99.85
78745;BME280;68064;53.100;8.824;2023-12-20T07:32:26;100924.41;;;5.76;100.00
78745;BME280;68064;53.100;8.824;2023-12-20T07:33:28;100926.94;;;5.76;100.00
78745;BME280;68064;53.100;8.824;2023-12-20T07:34:29;100927.91;;;5.78;100.00
78745;BME280;68064;53.100;8.824;2023-12-20T07:35:30;100930.75;;;5.82;100.00
78745;BME280;68064;53.100;8.824;2023-12-20T07:36:31;100931.44;;;5.80;99.96
78745;BME280;68064;53.100;8.824;2023-12-20T07:37:33;100949.22;;;5.80;100.00
78745;BME280;68064;53.100;8.824;2023-12-20T07:38:34;100938.25;;;5.81;99.81
78745;BME280;68064;53.100;8.824;2023-12-20T07:39:35;100936.59;;;5.81;99.81
78745;BME280;68064;53.100;8.824;2023-12-20T07:40:37;100933.28;;;5.82;100.00
78745;BME280;68064;53.100;8.824;2023-12-20T07:41:39;100935.84;;;5.82;100.00
78745;BME280;68064;53.100;8.824;2023-12-20T07:42:40;100929.88;;;5.82;99.75
78745;BME280;68064;53.100;8.824;2023-12-20T07:43:42;100920.47;;;5.81;99.99
78745;BME280;68064;53.100;8.824;2023-12-20T07:44:43;100925.69;;;5.82;100.00
78745;BME280;68064;53.100;8.824;2023-12-20T07:45:44;100912.88;;;5.81;100.00
78745;BME280;68064;53.100;8.824;2023-12-20T07:46:45;100919.72;;;5.82;100.00
78745;BME280;68064;53.100;8.824;2023-12-20T07:47:46;100923.84;;;5.80;100.00
78745;BME280;68064;53.100;8.824;2023-12-20T07:48:48;100917.94;;;5.81;100.00
78745;BME280;68064;53.100;8.824;2023-12-20T07:49:49;100929.88;;;5.82;100.00
78745;BME280;68064;53.100;8.824;2023-12-20T07:50:50;100916.28;;;5.81;100.00
78745;BME280;68064;53.100;8.824;2023-12-20T07:51:51;100916.22;;;5.80;100.00
78745;BME280;68064;53.100;8.824;2023-12-20T07:52:53;100915.59;;;5.84;100.00
78745;BME280;68064;53.100;8.824;2023-12-20T07:53:54;100910.66;;;5.85;100.00
78745;BME280;68064;53.100;8.824;2023-12-20T07:54:55;100916.69;;;5.88;100.00
78745;BME280;68064;53.100;8.824;2023-12-20T07:55:56;100931.09;;;5.87;100.00
78745;BME280;68064;53.100;8.824;2023-12-20T07:56:59;100931.94;;;5.88;100.00
78745;BME280;68064;53.100;8.824;2023-12-20T07:58:00;100917.28;;;5.83;100.00
78745;BME280;68064;53.100;8.824;2023-12-20T07:59:01;100900.00;;;5.91;100.00
78745;BME280;68064;53.100;8.824;2023-12-20T08:00:03;100908.22;;;5.87;100.00
78745;BME280;68064;53.100;8.824;2023-12-20T08:01:05;100903.16;;;5.87;100.00
78745;BME280;68064;53.100;8.824;2023-12-20T08:02:06;100899.28;;;5.94;100.00
78745;BME280;68064;53.100;8.824;2023-12-20T08:03:07;100902.47;;;5.90;100.00
78745;BME280;68064;53.100;8.824;2023-12-20T08:04:09;100900.00;;;5.91;100.00
78745;BME280;68064;53.100;8.824;2023-12-20T08:05:10;100899.09;;;5.91;100.00
78745;BME280;68064;53.100;8.824;2023-12-20T08:06:11;100910.28;;;5.93;100.00
78745;BME280;68064;53.100;8.824;2023-12-20T08:07:13;100906.84;;;5.92;100.00
78745;BME280;68064;53.100;8.824;2023-12-20T08:08:14;100904.31;;;5.92;100.00
78745;BME280;68064;53.100;8.824;2023-12-20T08:09:15;100900.09;;;5.93;100.00
78745;BME280;68064;53.100;8.824;2023-12-20T08:10:16;100901.66;;;5.91;100.00
78745;BME280;68064;53.100;8.824;2023-12-20T08:11:18;100896.56;;;5.91;100.00
78745;BME280;68064;53.100;8.824;2023-12-20T08:12:20;100891.78;;;5.95;100.00
78745;BME280;68064;53.100;8.824;2023-12-20T08:13:22;100892.56;;;5.94;100.00
78745;BME280;68064;53.100;8.824;2023-12-20T08:14:23;100886.00;;;5.98;100.00
78745;BME280;68064;53.100;8.824;2023-12-20T08:15:24;100891.09;;;5.98;100.00
78745;BME280;68064;53.100;8.824;2023-12-20T08:16:25;100899.53;;;5.97;100.00
78745;BME280;68064;53.100;8.824;2023-12-20T08:17:26;100888.47;;;5.96;100.00
78745;BME280;68064;53.100;8.824;2023-12-20T08:18:28;100889.13;;;5.94;100.00
78745;BME280;68064;53.100;8.824;2023-12-20T08:19:29;100890.91;;;5.95;100.00
78745;BME280;68064;53.100;8.824;2023-12-20T08:20:30;100888.38;;;5.95;100.00
78745;BME280;68064;53.100;8.824;2023-12-20T08:21:31;100889.34;;;5.97;100.00
78745;BME280;68064;53.100;8.824;2023-12-20T08:22:33;100891.91;;;5.97;100.00
78745;BME280;68064;53.100;8.824;2023-12-20T08:23:34;100889.13;;;5.94;100.00
78745;BME280;68064;53.100;8.824;2023-12-20T08:24:35;100888.38;;;5.95;100.00
78745;BME280;68064;53.100;8.824;2023-12-20T08:25:36;100888.03;;;6.03;100.00
78745;BME280;68064;53.100;8.824;2023-12-20T08:26:37;100878.69;;;6.02;100.00
78745;BME280;68064;53.100;8.824;2023-12-20T08:27:40;100895.00;;;6.06;99.70
78745;BME280;68064;53.100;8.824;2023-12-20T08:28:42;100880.34;;;6.02;100.00
78745;BME280;68064;53.100;8.824;2023-12-20T08:29:43;100873.59;;;6.02;100.00
78745;BME280;68064;53.100;8.824;2023-12-20T08:30:44;100890.69;;;6.05;100.00
78745;BME280;68064;53.100;8.824;2023-12-20T08:31:45;100889.03;;;6.05;99.71
78745;BME280;68064;53.100;8.824;2023-12-20T08:32:46;100876.22;;;6.04;99.87
78745;BME280;68064;53.100;8.824;2023-12-20T08:33:48;100872.78;;;6.03;100.00
78745;BME280;68064;53.100;8.824;2023-12-20T08:34:50;100878.00;;;6.05;100.00
78745;BME280;68064;53.100;8.824;2023-12-20T08:35:51;100867.72;;;6.03;100.00
78745;BME280;68064;53.100;8.824;2023-12-20T08:36:52;100877.41;;;6.09;100.00
78745;BME280;68064;53.100;8.824;2023-12-20T08:37:53;100875.63;;;6.08;100.00
78745;BME280;68064;53.100;8.824;2023-12-20T08:38:54;100872.31;;;6.09;100.00
78745;BME280;68064;53.100;8.824;2023-12-20T08:39:56;100878.34;;;6.11;100.00